100LL.CA
Aviation Fuel Pricing for Canadians
Please upgrade your browser - Tested with IE9, FireFox, Chrome, Safari

Fuel Airports Other Help
Prices Economy Info List METAR/TAF Kneeboard Help

Reference Airport: CAMPBELL RIVER, BC
N 49 57 07  W 125 16 23
Provinces to show:

CYBL CAMPBELL RIVER, BC
WEATHER
METARCYBL 230200Z 07002KT 10SM FEW003 BKN020 08/08 A3035 RMK SF2SC5 SLP282
TAFTAF CYBL 230040Z 2301/2305 13005KT 2SM -DZ BR BKN002 OVC008 TEMPO 2301/2305 6SM BR SCT008 OVC015 RMK NXT FCST BY 231600Z
OTHER SITES

FlightAware

FltPlan

Google Maps

SkyVector
FUEL
FBO 100LL
member
100LL
public
JETA MOGAS
Campbell River Airport (2022-09-22)2.180
  Note: Parking $7.50/night on the grass, $32.50/night on the pavement..
Sealand Flight (2023-05-13)2.600
  Note: Parking $7.50/night on the grass, $32.50/night on the pavement..
Canada Flight Supplement - CYBL
(opens in new tab/window)


Please Send Updates!

Desktop Version ]  [ Mobile Version ]  [ Disclaimer ]